createdAt,value
2018-05-11T00:00:44.319Z,100725.70
2018-05-11T00:03:12.327Z,100724.72
2018-05-11T00:05:40.094Z,100721.17
2018-05-11T00:08:07.960Z,100723.14
2018-05-11T00:10:35.722Z,100722.92
2018-05-11T00:13:03.384Z,100723.62
2018-05-11T00:15:31.151Z,100724.72
2018-05-11T00:17:58.912Z,100724.14
2018-05-11T00:20:26.673Z,100725.16
2018-05-11T00:22:54.486Z,100733.46
2018-05-11T00:25:22.309Z,100736.97
2018-05-11T00:27:50.175Z,100730.08
2018-05-11T00:30:17.885Z,100735.00
2018-05-11T00:32:45.703Z,100729.09
2018-05-11T00:35:13.419Z,100725.08
2018-05-11T00:37:41.131Z,100732.14
2018-05-11T00:40:08.872Z,100720.66
2018-05-11T00:42:36.620Z,100723.17
2018-05-11T00:45:04.320Z,100730.24
2018-05-11T00:47:31.981Z,100727.40
2018-05-11T00:49:59.697Z,100729.19
2018-05-11T00:52:27.462Z,100727.06
2018-05-11T00:54:55.275Z,100727.55
2018-05-11T00:57:23.145Z,100729.09
2018-05-11T00:59:50.910Z,100726.42
2018-05-11T01:02:18.776Z,100731.77
2018-05-11T01:04:46.541Z,100726.25
2018-05-11T01:07:14.613Z,100725.13
2018-05-11T01:09:42.479Z,100730.31
2018-05-11T01:12:10.652Z,100724.69
2018-05-11T01:14:38.522Z,100724.69
2018-05-11T01:17:06.391Z,100726.13
2018-05-11T01:19:34.341Z,100724.42
2018-05-11T01:22:02.134Z,100732.17
2018-05-11T01:24:30.026Z,100734.52
2018-05-11T01:26:58.066Z,100729.95
2018-05-11T01:29:25.885Z,100732.74
2018-05-11T01:31:53.593Z,100735.48
2018-05-11T01:34:21.440Z,100728.73
2018-05-11T01:36:49.408Z,100727.77
2018-05-11T01:39:17.190Z,100729.50
2018-05-11T01:41:44.892Z,100726.22
2018-05-11T01:44:12.619Z,100728.61
2018-05-11T01:46:40.326Z,100724.41
2018-05-11T01:49:08.352Z,100727.12
2018-05-11T01:51:36.120Z,100720.27
2018-05-11T01:54:03.978Z,100724.31
2018-05-11T01:56:31.748Z,100724.32
2018-05-11T01:58:59.466Z,100722.28
2018-05-11T02:01:27.288Z,100715.67
2018-05-11T02:03:55.145Z,100722.48
2018-05-11T02:06:22.906Z,100727.20
2018-05-11T02:08:50.569Z,100732.25
2018-05-11T02:11:18.289Z,100733.89
2018-05-11T02:13:46.102Z,100731.34
2018-05-11T02:16:13.863Z,100724.13
2018-05-11T02:18:41.756Z,100733.14
2018-05-11T02:21:09.492Z,100743.42
2018-05-11T02:23:38.025Z,100740.81
2018-05-11T02:26:05.846Z,100745.17
2018-05-11T02:28:33.607Z,100748.38
2018-05-11T02:31:01.475Z,100747.64
2018-05-11T02:33:29.447Z,100742.20
2018-05-11T02:35:57.315Z,100745.45
2018-05-11T02:38:25.280Z,100746.77
2018-05-11T02:40:53.046Z,100747.59
2018-05-11T02:43:20.782Z,100750.06
2018-05-11T02:45:48.576Z,100743.30
2018-05-11T02:48:16.369Z,100741.26
2018-05-11T02:50:44.164Z,100740.72
2018-05-11T02:53:11.970Z,100747.39
2018-05-11T02:55:39.736Z,100747.80
2018-05-11T02:58:07.601Z,100745.52
2018-05-11T03:00:35.323Z,100748.53
2018-05-11T03:03:03.102Z,100749.20
2018-05-11T03:05:30.795Z,100742.78
2018-05-11T03:07:58.662Z,100747.90
2018-05-11T03:10:26.421Z,100744.97
2018-05-11T03:12:54.181Z,100748.74
2018-05-11T03:15:22.007Z,100751.41
2018-05-11T03:17:49.722Z,100753.58
2018-05-11T03:20:17.376Z,100757.58
2018-05-11T03:22:45.255Z,100759.45
2018-05-11T03:25:13.009Z,100754.41
2018-05-11T03:27:40.670Z,100757.08
2018-05-11T03:30:08.396Z,100755.09
2018-05-11T03:32:36.272Z,100757.80
2018-05-11T03:35:04.175Z,100761.02
2018-05-11T03:37:32.041Z,100764.17
2018-05-11T03:40:00.011Z,100772.52
2018-05-11T03:42:27.828Z,100775.70
2018-05-11T03:44:55.637Z,100764.52
2018-05-11T03:47:23.512Z,100769.97
2018-05-11T03:49:51.169Z,100762.63
2018-05-11T03:52:18.827Z,100760.42
2018-05-11T03:54:46.493Z,100763.64
2018-05-11T03:57:14.326Z,100762.16
2018-05-11T03:59:42.009Z,100766.05
2018-05-11T04:02:21.354Z,100765.69
2018-05-11T04:05:00.900Z,100761.89
2018-05-11T04:07:40.538Z,100767.58
2018-05-11T04:10:08.301Z,100767.47
2018-05-11T04:12:36.029Z,100773.06
2018-05-11T04:15:04.753Z,100769.28
2018-05-11T04:17:32.459Z,100772.98
2018-05-11T04:20:00.282Z,100766.77
2018-05-11T04:22:28.046Z,100766.77
2018-05-11T04:24:55.814Z,100768.11
2018-05-11T04:27:23.523Z,100777.92
2018-05-11T04:29:51.237Z,100778.38
2018-05-11T04:32:18.907Z,100780.14
2018-05-11T04:34:46.767Z,100782.09
2018-05-11T04:37:14.546Z,100788.22
2018-05-11T04:39:42.398Z,100787.94
2018-05-11T04:42:10.122Z,100788.66
2018-05-11T04:44:37.928Z,100793.59
2018-05-11T04:47:05.757Z,100802.88
2018-05-11T04:49:33.447Z,100795.12
2018-05-11T04:52:01.288Z,100803.20
2018-05-11T04:54:29.155Z,100806.81
2018-05-11T04:56:57.159Z,100803.20
2018-05-11T04:59:25.014Z,100795.25
2018-05-11T05:01:53.077Z,100801.59
2018-05-11T05:04:20.874Z,100793.20
2018-05-11T05:06:48.589Z,100799.10
2018-05-11T05:09:16.395Z,100795.09
2018-05-11T05:11:44.772Z,100799.57
2018-05-11T05:14:12.637Z,100797.81
2018-05-11T05:16:40.298Z,100804.67
2018-05-11T05:19:08.188Z,100809.89
2018-05-11T05:21:36.135Z,100806.95
2018-05-11T05:24:03.898Z,100811.70
2018-05-11T05:26:31.664Z,100815.51
2018-05-11T05:28:59.633Z,100819.64
2018-05-11T05:31:27.352Z,100825.20
2018-05-11T05:33:55.169Z,100818.10
2018-05-11T05:36:22.927Z,100822.80
2018-05-11T05:38:50.693Z,100825.38
2018-05-11T05:41:18.456Z,100826.17
2018-05-11T05:43:46.220Z,100824.31
2018-05-11T05:46:13.882Z,100824.41
2018-05-11T05:48:41.648Z,100824.34
2018-05-11T05:51:09.417Z,100821.59
2018-05-11T05:53:37.292Z,100827.66
2018-05-11T05:56:04.996Z,100822.55
2018-05-11T05:58:32.871Z,100821.02
2018-05-11T06:01:00.572Z,100827.70
2018-05-11T06:03:28.295Z,100824.36
2018-05-11T06:05:56.102Z,100824.55
2018-05-11T06:08:23.863Z,100818.59
2018-05-11T06:10:51.748Z,100811.55
2018-05-11T06:13:19.600Z,100817.33
2018-05-11T06:15:47.570Z,100825.42
2018-05-11T06:18:15.232Z,100830.80
2018-05-11T06:20:43.100Z,100831.41
2018-05-11T06:23:10.862Z,100828.97
2018-05-11T06:25:38.671Z,100830.17
2018-05-11T06:28:06.598Z,100819.09
2018-05-11T06:30:34.355Z,100823.69
2018-05-11T06:33:02.072Z,100815.48
2018-05-11T06:35:29.786Z,100816.27
2018-05-11T06:37:57.551Z,100826.50
2018-05-11T06:40:25.424Z,100817.90
2018-05-11T06:42:53.080Z,100817.74
2018-05-11T06:45:20.742Z,100814.33
2018-05-11T06:47:48.508Z,100818.41
2018-05-11T06:50:16.264Z,100820.40
2018-05-11T06:52:44.037Z,100824.76
2018-05-11T06:55:11.792Z,100818.77
2018-05-11T06:57:39.543Z,100824.33
2018-05-11T07:00:07.337Z,100828.83
2018-05-11T07:02:35.048Z,100827.09
2018-05-11T07:05:02.856Z,100820.39
2018-05-11T07:07:30.627Z,100820.80
2018-05-11T07:09:58.488Z,100810.04
2018-05-11T07:12:26.216Z,100810.78
2018-05-11T07:14:53.913Z,100808.03
2018-05-11T07:17:21.671Z,100807.97
2018-05-11T07:19:49.449Z,100808.45
2018-05-11T07:22:17.099Z,100807.95
2018-05-11T07:24:44.870Z,100804.92
2018-05-11T07:27:12.531Z,100798.79
2018-05-11T07:29:40.359Z,100803.06
2018-05-11T07:32:08.090Z,100797.13
2018-05-11T07:34:35.919Z,100797.80
2018-05-11T07:37:03.689Z,100790.34
2018-05-11T07:39:31.405Z,100797.13
2018-05-11T07:41:59.118Z,100790.50
2018-05-11T07:44:26.985Z,100791.11
2018-05-11T07:46:54.752Z,100794.89
2018-05-11T07:49:22.620Z,100779.31
2018-05-11T07:51:50.337Z,100787.98
2018-05-11T07:54:18.146Z,100784.78
2018-05-11T07:56:45.916Z,100782.31
2018-05-11T07:59:13.675Z,100787.35
2018-05-11T08:01:41.439Z,100780.38
2018-05-11T08:04:09.307Z,100777.13
2018-05-11T08:06:37.064Z,100777.34
2018-05-11T08:09:04.981Z,100772.95
2018-05-11T08:11:32.908Z,100771.84
2018-05-11T08:14:00.564Z,100771.12
2018-05-11T08:16:28.380Z,100766.84
2018-05-11T08:18:56.093Z,100770.12
2018-05-11T08:21:23.855Z,100767.62
2018-05-11T08:23:51.581Z,100772.52
2018-05-11T08:26:19.393Z,100763.05
2018-05-11T08:28:47.114Z,100763.33
2018-05-11T08:31:14.921Z,100751.06
2018-05-11T08:33:42.686Z,100753.31
2018-05-11T08:36:10.451Z,100750.61
2018-05-11T08:38:38.217Z,100746.98
2018-05-11T08:41:05.984Z,100747.44
2018-05-11T08:43:33.849Z,100744.69
2018-05-11T08:46:01.820Z,100742.97
2018-05-11T08:48:29.673Z,100738.02
2018-05-11T08:50:57.452Z,100737.58
2018-05-11T08:53:25.219Z,100743.36
2018-05-11T08:55:53.290Z,100734.75
2018-05-11T08:58:21.156Z,100739.02
2018-05-11T09:00:49.126Z,100733.46
2018-05-11T09:03:16.850Z,100730.36
2018-05-11T09:05:44.649Z,100729.09
2018-05-11T09:08:12.363Z,100730.41
2018-05-11T09:10:40.084Z,100722.63
2018-05-11T09:13:07.842Z,100735.86
2018-05-11T09:15:35.660Z,100722.28
2018-05-11T09:18:03.379Z,100722.48
2018-05-11T09:20:31.195Z,100718.49
2018-05-11T09:22:58.898Z,100712.73
2018-05-11T09:25:26.724Z,100706.08
2018-05-11T09:27:54.531Z,100697.87
2018-05-11T09:30:22.294Z,100702.46
2018-05-11T09:32:50.005Z,100706.47
2018-05-11T09:35:17.926Z,100700.55
2018-05-11T09:37:45.640Z,100698.36
2018-05-11T09:40:13.555Z,100694.63
2018-05-11T09:42:41.322Z,100700.23
2018-05-11T09:45:09.188Z,100697.72
2018-05-11T09:47:37.058Z,100695.70
2018-05-11T09:50:04.872Z,100700.09
2018-05-11T09:52:32.687Z,100698.08
2018-05-11T09:55:00.485Z,100702.92
2018-05-11T09:57:28.216Z,100700.36
2018-05-11T09:59:55.982Z,100696.20
2018-05-11T10:02:23.746Z,100690.25
2018-05-11T10:04:51.513Z,100694.08
2018-05-11T10:07:19.274Z,100698.69
2018-05-11T10:09:47.141Z,100689.50
2018-05-11T10:12:15.972Z,100699.45
2018-05-11T10:14:43.797Z,100687.64
2018-05-11T10:17:11.509Z,100690.41
2018-05-11T10:19:39.223Z,100685.55
2018-05-11T10:22:06.873Z,100689.98
2018-05-11T10:24:34.753Z,100689.47
2018-05-11T10:27:02.411Z,100679.67
2018-05-11T10:29:30.218Z,100682.62
2018-05-11T10:31:58.509Z,100675.00
2018-05-11T10:34:26.459Z,100667.92
2018-05-11T10:36:54.187Z,100674.05
2018-05-11T10:39:21.849Z,100665.75
2018-05-11T10:41:49.615Z,100677.00
2018-05-11T10:44:17.324Z,100667.67
2018-05-11T10:46:45.151Z,100668.84
2018-05-11T10:49:12.804Z,100663.41
2018-05-11T10:51:40.670Z,100660.73
2018-05-11T10:54:08.335Z,100659.68
2018-05-11T10:56:36.153Z,100659.69
2018-05-11T10:59:03.969Z,100655.73
2018-05-11T11:01:31.784Z,100651.92
2018-05-11T11:03:59.492Z,100649.28
2018-05-11T11:06:27.260Z,100641.56
2018-05-11T11:08:54.917Z,100632.25
2018-05-11T11:11:22.690Z,100639.42
2018-05-11T11:13:50.520Z,100629.44
2018-05-11T11:16:18.320Z,100636.09
2018-05-11T11:18:46.084Z,100633.41
2018-05-11T11:21:13.948Z,100624.09
2018-05-11T11:23:41.715Z,100629.76
2018-05-11T11:26:09.479Z,100615.70
2018-05-11T11:28:38.061Z,100624.11
2018-05-11T11:31:05.930Z,100611.42
2018-05-11T11:33:33.797Z,100619.12
2018-05-11T11:36:01.663Z,100610.42
2018-05-11T11:38:29.389Z,100608.30
2018-05-11T11:40:57.293Z,100604.39
2018-05-11T11:43:25.008Z,100594.86
2018-05-11T11:45:52.926Z,100596.16
2018-05-11T11:48:20.690Z,100585.59
2018-05-11T11:50:48.455Z,100585.92
2018-05-11T11:53:16.219Z,100581.72
2018-05-11T11:55:43.936Z,100586.29
2018-05-11T11:58:11.749Z,100588.08
2018-05-11T12:00:39.570Z,100578.76
2018-05-11T12:03:07.379Z,100580.26
2018-05-11T12:05:35.143Z,100576.80
2018-05-11T12:08:02.846Z,100577.84
2018-05-11T12:10:30.672Z,100572.66
2018-05-11T12:12:58.381Z,100569.95
2018-05-11T12:15:26.099Z,100569.73
2018-05-11T12:17:53.863Z,100563.84
2018-05-11T12:20:21.628Z,100571.89
2018-05-11T12:22:49.494Z,100556.98
2018-05-11T12:25:17.265Z,100546.52
2018-05-11T12:27:45.024Z,100552.02
2018-05-11T12:30:12.784Z,100550.21
2018-05-11T12:32:40.516Z,100547.41
2018-05-11T12:35:08.317Z,100549.88
2018-05-11T12:37:36.024Z,100548.52
2018-05-11T12:40:03.792Z,100550.05
2018-05-11T12:42:31.508Z,100548.47
2018-05-11T12:45:00.196Z,100544.61
2018-05-11T12:47:28.061Z,100548.45
2018-05-11T12:49:55.827Z,100542.41
2018-05-11T12:52:23.558Z,100542.20
2018-05-11T12:54:51.254Z,100535.94
2018-05-11T12:57:19.110Z,100535.27
2018-05-11T12:59:46.885Z,100533.39
2018-05-11T13:02:14.750Z,100525.89
2018-05-11T13:04:42.722Z,100529.95
2018-05-11T13:07:10.747Z,100527.98
2018-05-11T13:09:38.663Z,100527.70
2018-05-11T13:12:06.424Z,100528.41
2018-05-11T13:14:34.178Z,100528.95
2018-05-11T13:17:01.860Z,100524.55
2018-05-11T13:19:29.511Z,100529.14
2018-05-11T13:21:57.331Z,100517.25
2018-05-11T13:24:25.146Z,100523.20
2018-05-11T13:26:52.908Z,100518.63
2018-05-11T13:29:20.632Z,100513.41
2018-05-11T13:31:48.437Z,100510.06
2018-05-11T13:34:16.183Z,100512.91
2018-05-11T13:36:44.033Z,100504.84
2018-05-11T13:39:11.823Z,100505.80
2018-05-11T13:41:39.600Z,100494.54
2018-05-11T13:44:07.364Z,100499.34
2018-05-11T13:46:35.231Z,100500.44
2018-05-11T13:49:02.942Z,100494.04
2018-05-11T13:51:30.711Z,100491.20
2018-05-11T13:53:58.629Z,100486.86
2018-05-11T13:56:26.508Z,100491.34
2018-05-11T13:58:54.359Z,100485.56
2018-05-11T14:01:22.227Z,100484.91
2018-05-11T14:03:49.990Z,100483.33
2018-05-11T14:06:17.752Z,100483.53
2018-05-11T14:08:45.475Z,100473.51
2018-05-11T14:11:13.284Z,100479.03
2018-05-11T14:13:40.947Z,100470.56
2018-05-11T14:16:08.712Z,100477.55
2018-05-11T14:18:36.475Z,100472.25
2018-05-11T14:21:04.287Z,100468.89
2018-05-11T14:23:32.107Z,100464.52
2018-05-11T14:25:59.872Z,100470.83
2018-05-11T14:28:27.634Z,100462.05
2018-05-11T14:30:55.399Z,100459.33
2018-05-11T14:33:23.120Z,100458.81
2018-05-11T14:35:50.825Z,100459.98
2018-05-11T14:38:18.529Z,100451.61
2018-05-11T14:40:46.356Z,100457.59
2018-05-11T14:43:14.119Z,100454.22
2018-05-11T14:45:41.987Z,100453.06
2018-05-11T14:48:09.697Z,100448.45
2018-05-11T14:50:37.514Z,100442.17
2018-05-11T14:53:05.281Z,100441.17
2018-05-11T14:55:33.047Z,100446.84
2018-05-11T14:58:00.914Z,100440.70
2018-05-11T15:00:28.630Z,100436.13
2018-05-11T15:02:56.446Z,100443.84
2018-05-11T15:05:24.162Z,100437.69
2018-05-11T15:07:51.969Z,100433.58
2018-05-11T15:10:19.737Z,100437.98
2018-05-11T15:12:47.605Z,100441.34
2018-05-11T15:15:15.307Z,100432.46
2018-05-11T15:17:43.128Z,100433.56
2018-05-11T15:20:10.845Z,100433.75
2018-05-11T15:22:38.657Z,100431.61
2018-05-11T15:25:06.315Z,100426.63
2018-05-11T15:27:34.042Z,100432.58
2018-05-11T15:30:01.850Z,100430.06
2018-05-11T15:32:29.717Z,100427.27
2018-05-11T15:34:57.443Z,100423.64
2018-05-11T15:37:25.144Z,100426.41
2018-05-11T15:39:52.853Z,100421.77
2018-05-11T15:42:20.670Z,100421.45
2018-05-11T15:44:48.441Z,100418.38
2018-05-11T15:47:16.405Z,100419.31
2018-05-11T15:49:44.219Z,100419.78
2018-05-11T15:52:11.936Z,100409.86
2018-05-11T15:54:39.799Z,100409.25
2018-05-11T15:57:07.674Z,100407.29
2018-05-11T15:59:35.328Z,100403.28
2018-05-11T16:02:03.197Z,100405.59
2018-05-11T16:04:30.857Z,100401.84
2018-05-11T16:06:58.626Z,100404.23
2018-05-11T16:09:26.391Z,100398.28
2018-05-11T16:11:54.257Z,100393.72
2018-05-11T16:14:21.988Z,100399.59
2018-05-11T16:16:50.503Z,100396.28
2018-05-11T16:19:18.267Z,100393.20
2018-05-11T16:21:46.044Z,100390.70
2018-05-11T16:24:13.797Z,100385.19
2018-05-11T16:26:41.551Z,100391.42
2018-05-11T16:29:09.324Z,100390.27
2018-05-11T16:31:37.131Z,100391.20
2018-05-11T16:34:04.956Z,100387.09
2018-05-11T16:36:32.719Z,100392.24
2018-05-11T16:39:00.430Z,100382.80
2018-05-11T16:41:28.249Z,100376.63
2018-05-11T16:43:55.966Z,100383.75
2018-05-11T16:46:23.667Z,100377.61
2018-05-11T16:48:51.439Z,100381.36
2018-05-11T16:51:19.306Z,100374.33
2018-05-11T16:53:47.030Z,100369.70
2018-05-11T16:56:14.822Z,100367.31
2018-05-11T16:58:42.602Z,100371.98
2018-05-11T17:01:10.309Z,100377.25
2018-05-11T17:03:38.020Z,100370.77
2018-05-11T17:06:05.893Z,100367.38
2018-05-11T17:08:33.610Z,100369.20
2018-05-11T17:11:01.320Z,100368.98
2018-05-11T17:13:28.980Z,100366.58
2018-05-11T17:15:56.744Z,100367.94
2018-05-11T17:18:24.454Z,100367.05
2018-05-11T17:20:52.221Z,100363.08
2018-05-11T17:23:20.250Z,100366.37
2018-05-11T17:25:47.912Z,100363.38
2018-05-11T17:28:15.877Z,100365.38
2018-05-11T17:30:43.644Z,100365.02
2018-05-11T17:33:11.507Z,100356.55
2018-05-11T17:35:39.276Z,100353.80
2018-05-11T17:38:07.089Z,100355.41
2018-05-11T17:40:34.904Z,100353.98
2018-05-11T17:43:02.770Z,100355.91
2018-05-11T17:45:30.490Z,100354.05
2018-05-11T17:47:58.300Z,100357.85
2018-05-11T17:50:26.124Z,100355.87
2018-05-11T17:52:54.033Z,100353.95
2018-05-11T17:55:21.692Z,100353.75
2018-05-11T17:57:49.351Z,100352.03
2018-05-11T18:00:17.067Z,100350.50
2018-05-11T18:02:44.883Z,100354.41
2018-05-11T18:05:12.600Z,100351.76
2018-05-11T18:07:40.365Z,100357.20
2018-05-11T18:10:08.272Z,100362.17
2018-05-11T18:12:36.047Z,100365.84
2018-05-11T18:15:03.707Z,100365.07
2018-05-11T18:17:31.534Z,100363.80
2018-05-11T18:19:59.342Z,100366.04
2018-05-11T18:22:27.168Z,100366.04
2018-05-11T18:24:54.972Z,100360.29
2018-05-11T18:27:22.736Z,100353.67
2018-05-11T18:29:50.503Z,100352.42
2018-05-11T18:32:18.369Z,100358.14
2018-05-11T18:34:46.080Z,100356.15
2018-05-11T18:37:14.000Z,100361.24
2018-05-11T18:39:41.795Z,100356.86
2018-05-11T18:42:09.481Z,100357.79
2018-05-11T18:44:37.296Z,100362.93
2018-05-11T18:47:05.188Z,100367.05
2018-05-11T18:49:32.901Z,100361.34
2018-05-11T18:52:00.721Z,100361.03
2018-05-11T18:54:29.022Z,100357.24
2018-05-11T18:56:56.479Z,100355.28
2018-05-11T18:59:24.297Z,100361.84
2018-05-11T19:01:52.157Z,100364.73
2018-05-11T19:04:19.920Z,100363.84
2018-05-11T19:06:47.787Z,100363.06
2018-05-11T19:09:15.514Z,100366.80
2018-05-11T19:11:43.255Z,100372.38
2018-05-11T19:14:11.081Z,100384.22
2018-05-11T19:16:38.948Z,100376.23
2018-05-11T19:19:06.611Z,100380.52
2018-05-11T19:21:34.375Z,100388.84
2018-05-11T19:24:02.139Z,100393.59
2018-05-11T19:26:29.905Z,100386.73
2018-05-11T19:28:57.770Z,100396.59
2018-05-11T19:31:25.497Z,100392.28
2018-05-11T19:33:53.406Z,100404.44
2018-05-11T19:36:21.125Z,100402.17
2018-05-11T19:38:49.034Z,100410.05
2018-05-11T19:41:16.759Z,100406.68
2018-05-11T19:43:44.563Z,100410.31
2018-05-11T19:46:12.328Z,100411.81
2018-05-11T19:48:40.160Z,100411.86
2018-05-11T19:51:07.962Z,100415.77
2018-05-11T19:53:35.623Z,100413.67
2018-05-11T19:56:03.664Z,100417.61
2018-05-11T19:58:31.460Z,100427.70
2018-05-11T20:00:59.300Z,100423.67
2018-05-11T20:03:27.065Z,100423.98
2018-05-11T20:05:54.860Z,100429.10
2018-05-11T20:08:22.723Z,100427.28
2018-05-11T20:10:50.474Z,100427.37
2018-05-11T20:13:18.254Z,100432.96
2018-05-11T20:15:46.013Z,100432.59
2018-05-11T20:18:13.935Z,100429.30
2018-05-11T20:20:41.747Z,100429.56
2018-05-11T20:23:09.617Z,100434.69
2018-05-11T20:25:37.340Z,100432.92
2018-05-11T20:28:05.143Z,100435.20
2018-05-11T20:30:32.908Z,100431.62
2018-05-11T20:33:00.778Z,100436.36
2018-05-11T20:35:28.485Z,100437.14
2018-05-11T20:37:56.232Z,100434.58
2018-05-11T20:40:23.966Z,100432.11
2018-05-11T20:42:51.935Z,100433.44
2018-05-11T20:45:19.670Z,100435.47
2018-05-11T20:47:47.467Z,100432.18
2018-05-11T20:50:15.338Z,100434.73
2018-05-11T20:52:43.048Z,100433.66
2018-05-11T20:55:10.860Z,100435.88
2018-05-11T20:57:38.704Z,100437.48
2018-05-11T21:00:06.493Z,100436.56
2018-05-11T21:02:34.152Z,100442.46
2018-05-11T21:05:01.984Z,100438.00
2018-05-11T21:07:29.788Z,100438.33
2018-05-11T21:09:57.550Z,100437.55
2018-05-11T21:12:25.381Z,100441.92
2018-05-11T21:14:53.184Z,100438.08
2018-05-11T21:17:20.738Z,100438.95
2018-05-11T21:19:48.401Z,100440.34
2018-05-11T21:22:16.149Z,100439.69
2018-05-11T21:24:43.936Z,100439.95
2018-05-11T21:27:11.749Z,100444.64
2018-05-11T21:29:39.562Z,100444.70
2018-05-11T21:32:07.223Z,100444.39
2018-05-11T21:34:34.991Z,100442.97
2018-05-11T21:37:02.697Z,100444.08
2018-05-11T21:39:30.415Z,100442.66
2018-05-11T21:41:58.131Z,100442.96
2018-05-11T21:44:25.952Z,100439.25
2018-05-11T21:46:53.767Z,100439.05
2018-05-11T21:49:21.579Z,100437.03
2018-05-11T21:51:49.301Z,100430.14
2018-05-11T21:54:17.151Z,100432.08
2018-05-11T21:56:44.976Z,100433.93
2018-05-11T21:59:12.702Z,100428.66
2018-05-11T22:01:40.494Z,100431.57
2018-05-11T22:04:08.169Z,100429.72
2018-05-11T22:06:36.033Z,100431.41
2018-05-11T22:09:03.789Z,100425.36
2018-05-11T22:11:31.536Z,100432.75
2018-05-11T22:13:59.333Z,100432.86
2018-05-11T22:16:27.189Z,100434.45
2018-05-11T22:18:54.914Z,100431.17
2018-05-11T22:21:22.721Z,100429.25
2018-05-11T22:23:50.444Z,100435.02
2018-05-11T22:26:18.354Z,100433.37
2018-05-11T22:28:46.222Z,100433.27
2018-05-11T22:31:14.045Z,100429.73
2018-05-11T22:33:41.853Z,100430.49
2018-05-11T22:36:09.615Z,100431.17
2018-05-11T22:38:37.446Z,100433.35
2018-05-11T22:41:05.114Z,100429.92
2018-05-11T22:43:32.799Z,100426.63
2018-05-11T22:46:00.570Z,100430.65
2018-05-11T22:48:28.437Z,100425.55
2018-05-11T22:50:56.093Z,100430.67
2018-05-11T22:53:24.068Z,100426.70
2018-05-11T22:55:51.728Z,100426.78
2018-05-11T22:58:19.486Z,100425.78
2018-05-11T23:00:47.196Z,100428.70
2018-05-11T23:03:15.070Z,100422.32
2018-05-11T23:05:42.955Z,100423.24
2018-05-11T23:08:10.653Z,100425.17
2018-05-11T23:10:38.394Z,100422.16
2018-05-11T23:13:06.136Z,100425.14
2018-05-11T23:15:33.948Z,100423.55
2018-05-11T23:18:01.764Z,100420.78
2018-05-11T23:20:29.579Z,100420.28
2018-05-11T23:22:57.244Z,100423.77
2018-05-11T23:25:24.894Z,100417.36
2018-05-11T23:27:52.707Z,100422.81
2018-05-11T23:30:20.432Z,100415.17
2018-05-11T23:32:48.197Z,100421.59
2018-05-11T23:35:16.119Z,100413.03
2018-05-11T23:37:43.929Z,100413.48
2018-05-11T23:40:11.739Z,100411.73
2018-05-11T23:42:39.561Z,100417.10
2018-05-11T23:45:07.327Z,100410.22
2018-05-11T23:47:35.043Z,100406.48
2018-05-11T23:50:02.855Z,100400.95
2018-05-11T23:52:30.575Z,100397.75
2018-05-11T23:54:58.283Z,100395.03
2018-05-11T23:57:26.046Z,100393.18
2018-05-11T23:59:53.811Z,100394.66
